Alsace — PB4786 — position and weather

sailwx.info

Track history (hours):
 
Tides and Currents Weather Stations Pressure Air Temp Water Temp Dewpoint Dewpoint Depression Visibility Wind Speed Wind Dir Waves Ship Positions

Alsace

Last reported at 2018-Apr-21 04:00 UTC. Time now 2018-Apr-21 04:10 UTC.
Position N 51°50' E 006°13'.

Length 178 m; draft 2 m.

Type: Ship. MMSI: 244660556.

Date/timePositionNaut miles runAvg speedWind from/ knotsBaromVisibWave heightAir tempDewpointWater temp
2018-Apr-21 04:00N 51°50' E 006°13'3 6.5
2018-Apr-21 03:30N 51°51' E 006°08'3 6.8
2018-Apr-21 03:00N 51°52' E 006°03'3 5.4
2018-Apr-21 02:30N 51°52' E 005°59'4 5.8
2018-Apr-21 01:54N 51°52' E 005°53'2 5.1
2018-Apr-21 01:27N 51°52' E 005°50'5 7.0
2018-Apr-21 00:48N 51°54' E 005°43'2 7.0
2018-Apr-21 00:30N 51°54' E 005°39'3 7.0
2018-Apr-21 00:00N 51°54' E 005°34'4 6.9
2018-Apr-20 23:29N 51°53' E 005°28'4 6.2
2018-Apr-20 22:54N 51°50' E 005°24'3 7.1
2018-Apr-20 22:30N 51°48' E 005°22'3 6.2
2018-Apr-20 21:59N 51°49' E 005°17'4 7.0
2018-Apr-20 21:28N 51°49' E 005°11'3 7.2
2018-Apr-20 21:00N 51°50' E 005°06'4 7.8
2018-Apr-20 20:30N 51°49' E 004°59'4 8.5
2018-Apr-20 20:00N 51°49' E 004°52'5 9.7
2018-Apr-20 19:30N 51°49' E 004°45'4 8.0
2018-Apr-20 19:00N 51°51' E 004°39'5 9.7
2018-Apr-20 18:30N 51°54' E 004°33'2 4.6
2018-Apr-20 18:00N 51°54' E 004°29'1 1.2
2018-Apr-20 17:30N 51°54' E 004°28'2 4.3
2018-Apr-20 17:00N 51°53' E 004°25'0 0.0
2018-Apr-20 16:30N 51°53' E 004°25'0 0.1
2018-Apr-20 16:00N 51°53' E 004°25'0 0.0
2018-Apr-20 15:30N 51°53' E 004°25'0 0.0
2018-Apr-20 15:00N 51°53' E 004°25'0 0.6
2018-Apr-20 14:30N 51°53' E 004°24'0 0.0
2018-Apr-20 13:57N 51°53' E 004°24'0 0.0
2018-Apr-20 13:27N 51°53' E 004°24'0 0.0
2018-Apr-20 12:54N 51°53' E 004°24'0 0.0
2018-Apr-20 12:30N 51°53' E 004°24'0 0.0
2018-Apr-20 12:00N 51°53' E 004°24'0 0.0
2018-Apr-20 11:29N 51°53' E 004°24'0 0.0
2018-Apr-20 10:55N 51°53' E 004°24'0 0.0
2018-Apr-20 10:27N 51°53' E 004°24'1 1.9
2018-Apr-20 09:59N 51°54' E 004°23'3 5.5
2018-Apr-20 09:30N 51°54' E 004°19'2 4.9
2018-Apr-20 09:00N 51°55' E 004°15'2 4.7
2018-Apr-20 08:30N 51°56' E 004°12'3 5.4
2018-Apr-20 08:00N 51°58' E 004°09'3 5.8
2018-Apr-20 07:30N 51°58' E 004°04'2 4.5
2018-Apr-20 07:00N 51°58' E 004°00'0 0.3
2018-Apr-20 06:30N 51°57' E 004°01'0 0.0
2018-Apr-20 06:00N 51°57' E 004°01'0 0.0
2018-Apr-20 05:30N 51°57' E 004°01'0 0.0
2018-Apr-20 05:00N 51°57' E 004°01'0 0.0
2018-Apr-20 04:30N 51°57' E 004°01'0 0.0
2018-Apr-20 04:00N 51°57' E 004°01'0 0.0
2018-Apr-20 03:30N 51°57' E 004°01'0 0.0
2018-Apr-20 03:00N 51°57' E 004°01'0 0.0
2018-Apr-20 02:30N 51°57' E 004°01'0 0.0
2018-Apr-20 02:00N 51°57' E 004°01'0 0.0
2018-Apr-20 01:30N 51°57' E 004°01'0 0.0
2018-Apr-20 01:00N 51°57' E 004°01'0 0.0
2018-Apr-20 00:30N 51°57' E 004°01'0 0.2
2018-Apr-20 00:00N 51°57' E 004°01'0 0.0
2018-Apr-19 23:30N 51°57' E 004°01'0 0.0
2018-Apr-19 23:00N 51°57' E 004°01'0 0.0
2018-Apr-19 22:30N 51°57' E 004°01'0 0.0
2018-Apr-19 22:00N 51°57' E 004°01'0 0.0
2018-Apr-19 21:30N 51°57' E 004°01'0 0.5
2018-Apr-19 21:00N 51°58' E 004°00'2 4.7
2018-Apr-19 20:30N 51°58' E 004°04'4 8.2
2018-Apr-19 20:00N 51°56' E 004°10'5 9.0
2018-Apr-19 19:30N 51°52' E 004°15'4 7.9
2018-Apr-19 19:00N 51°51' E 004°21'4 7.4
2018-Apr-19 18:30N 51°50' E 004°27'4 7.3
2018-Apr-19 18:00N 51°50' E 004°33'3 6.4
2018-Apr-19 17:30N 51°48' E 004°37'4 7.3
2018-Apr-19 17:00N 51°49' E 004°43'0 0.9
2018-Apr-19 16:30N 51°50' E 004°43'0 0.0
2018-Apr-19 16:00N 51°50' E 004°43'0 0.0
2018-Apr-19 15:30N 51°50' E 004°43'0 0.0
2018-Apr-19 15:00N 51°50' E 004°43'0 0.0
2018-Apr-19 14:30N 51°50' E 004°43'0 0.0
2018-Apr-19 14:00N 51°50' E 004°43'0 0.0
2018-Apr-19 13:30N 51°50' E 004°43'0 0.0
2018-Apr-19 13:00N 51°50' E 004°43'0 0.0
2018-Apr-19 12:30N 51°50' E 004°43'0 0.0
2018-Apr-19 12:00N 51°50' E 004°43'0 0.0
2018-Apr-19 11:30N 51°50' E 004°43'0 0.0
2018-Apr-19 11:00N 51°50' E 004°43'0 0.0
2018-Apr-19 10:30N 51°50' E 004°43'0 0.0
2018-Apr-19 10:00N 51°50' E 004°43'0 0.0
2018-Apr-19 09:30N 51°50' E 004°43'0 0.0
2018-Apr-19 09:00N 51°50' E 004°43'0 0.0
2018-Apr-19 08:30N 51°50' E 004°43'0 0.0
2018-Apr-19 08:00N 51°50' E 004°43'0 0.0
2018-Apr-19 07:30N 51°50' E 004°43'0 0.0
2018-Apr-19 07:00N 51°50' E 004°43'0 0.0
2018-Apr-19 06:30N 51°50' E 004°43'0 0.0
2018-Apr-19 06:00N 51°50' E 004°43'0 0.0
2018-Apr-19 05:30N 51°50' E 004°43'0 0.3
2018-Apr-19 05:00N 51°50' E 004°43'0 0.3
2018-Apr-19 04:30N 51°50' E 004°43'0 0.0
2018-Apr-19 04:00N 51°50' E 004°43'0 0.0
2018-Apr-19 03:30N 51°50' E 004°43'0 0.0
2018-Apr-19 03:00N 51°50' E 004°43'0 0.0
2018-Apr-19 02:30N 51°50' E 004°43'0 0.0
2018-Apr-19 02:00N 51°50' E 004°43'0 0.0
2018-Apr-19 01:30N 51°50' E 004°43'0 0.0
2018-Apr-19 01:00N 51°50' E 004°43'0 0.0
2018-Apr-19 00:30N 51°50' E 004°43'0 0.0
2018-Apr-19 00:00N 51°50' E 004°43'0 0.0
2018-Apr-18 23:30N 51°50' E 004°43'0 0.0
2018-Apr-18 23:00N 51°50' E 004°43'0 0.0
2018-Apr-18 22:30N 51°50' E 004°43'0 0.0
2018-Apr-18 22:00N 51°50' E 004°43'0 0.0
2018-Apr-18 21:30N 51°50' E 004°43'0 0.0
2018-Apr-18 21:00N 51°50' E 004°43'0 0.0
2018-Apr-18 20:30N 51°50' E 004°43'0 0.0
2018-Apr-18 20:00N 51°50' E 004°43'0 0.0
2018-Apr-18 19:30N 51°50' E 004°43'0 0.0
2018-Apr-18 19:00N 51°50' E 004°43'0 0.0
2018-Apr-18 18:30N 51°50' E 004°43'0 0.0
2018-Apr-18 18:00N 51°50' E 004°43'0 0.0
2018-Apr-18 17:30N 51°50' E 004°43'0 0.0
2018-Apr-18 17:00N 51°50' E 004°43'0 0.0
2018-Apr-18 16:30N 51°50' E 004°43'0 0.0
2018-Apr-18 16:00N 51°50' E 004°43'0 0.0
2018-Apr-18 15:30N 51°50' E 004°43'0 0.0
2018-Apr-18 15:00N 51°50' E 004°43'0 0.0
2018-Apr-18 14:30N 51°50' E 004°43'0 0.0
2018-Apr-18 14:00N 51°50' E 004°43'0 0.0
2018-Apr-18 13:30N 51°50' E 004°43'0 0.0
2018-Apr-18 13:00N 51°50' E 004°43'0 0.0
2018-Apr-18 12:30N 51°50' E 004°43'0 0.0
2018-Apr-18 12:00N 51°50' E 004°43'0 0.0
2018-Apr-18 11:30N 51°50' E 004°43'0 0.0
2018-Apr-18 11:00N 51°50' E 004°43'0 0.0
2018-Apr-18 10:30N 51°50' E 004°43'0 0.0
2018-Apr-18 10:00N 51°50' E 004°43'0 0.0
2018-Apr-18 09:30N 51°50' E 004°43'0 0.0
2018-Apr-18 09:00N 51°50' E 004°43'0 0.0
2018-Apr-18 08:30N 51°50' E 004°43'0 0.0
2018-Apr-18 08:00N 51°50' E 004°43'0 0.0
2018-Apr-18 07:30N 51°50' E 004°43'0 0.0
2018-Apr-18 07:00N 51°50' E 004°43'0 0.0
2018-Apr-18 06:30N 51°50' E 004°43'0 0.0
2018-Apr-18 06:00N 51°50' E 004°43'0 0.0
2018-Apr-18 05:30N 51°50' E 004°43'0 0.0
2018-Apr-18 05:00N 51°50' E 004°43'0 0.0
2018-Apr-18 04:30N 51°50' E 004°43'0 0.0
2018-Apr-18 04:00N 51°50' E 004°43'0 0.0
2018-Apr-18 03:30N 51°50' E 004°43'0 0.0
2018-Apr-18 03:00N 51°50' E 004°43'0 0.0
2018-Apr-18 02:30N 51°50' E 004°43'0 0.0
2018-Apr-18 02:00N 51°50' E 004°43'0 0.0
2018-Apr-18 01:30N 51°50' E 004°43'0 0.0
2018-Apr-18 01:00N 51°50' E 004°43'0 0.0
2018-Apr-18 00:30N 51°50' E 004°43'0 0.0
2018-Apr-18 00:00N 51°50' E 004°43'0 0.0
2018-Apr-17 23:30N 51°50' E 004°43'0 0.0
2018-Apr-17 23:00N 51°50' E 004°43'0 0.0
2018-Apr-17 22:30N 51°50' E 004°43'0 0.0
2018-Apr-17 22:00N 51°50' E 004°43'0 0.0
2018-Apr-17 21:30N 51°50' E 004°43'0 0.0
2018-Apr-17 21:00N 51°50' E 004°43'0 0.0
2018-Apr-17 20:30N 51°50' E 004°43'0 0.0
2018-Apr-17 20:00N 51°50' E 004°43'0 0.0
2018-Apr-17 19:30N 51°50' E 004°43'0 0.0
2018-Apr-17 19:00N 51°50' E 004°43'0 0.0
2018-Apr-17 18:30N 51°50' E 004°43'0 0.0
2018-Apr-17 18:00N 51°50' E 004°43'0 0.0
2018-Apr-17 17:30N 51°50' E 004°43'0 0.0
2018-Apr-17 17:00N 51°50' E 004°43'0 0.0
2018-Apr-17 16:30N 51°50' E 004°43'0 0.4
2018-Apr-17 16:00N 51°50' E 004°44'0 0.5
2018-Apr-17 15:30N 51°50' E 004°43'0 0.0
2018-Apr-17 15:00N 51°50' E 004°43'0 0.0
2018-Apr-17 14:30N 51°50' E 004°43'0 0.2
2018-Apr-17 14:00N 51°50' E 004°43'0 0.1
2018-Apr-17 13:30N 51°50' E 004°43'0 0.0
2018-Apr-17 13:00N 51°50' E 004°43'0 0.5
2018-Apr-17 12:30N 51°50' E 004°43'0 0.5
2018-Apr-17 12:00N 51°50' E 004°43'0 0.0
2018-Apr-17 11:30N 51°50' E 004°43'1 2.9
2018-Apr-17 11:00N 51°49' E 004°41'2 4.1
2018-Apr-17 10:30N 51°48' E 004°38'3 6.8
2018-Apr-17 10:00N 51°50' E 004°33'3 6.6
2018-Apr-17 09:30N 51°50' E 004°28'3 6.8
2018-Apr-17 09:00N 51°51' E 004°23'3 6.3
2018-Apr-17 08:30N 51°52' E 004°18'3 6.0
2018-Apr-17 08:00N 51°53' E 004°14'3 6.3
2018-Apr-17 07:30N 51°56' E 004°10'3 5.3
2018-Apr-17 07:00N 51°56' E 004°06'1 2.3
2018-Apr-17 06:30N 51°57' E 004°04'0 0.0
2018-Apr-17 06:00N 51°57' E 004°04'0 0.1
2018-Apr-17 05:30N 51°57' E 004°05'0 0.0
2018-Apr-17 05:00N 51°57' E 004°05'1 1.3
2018-Apr-17 04:30N 51°58' E 004°04'3 5.3
2018-Apr-17 04:00N 51°58' E 004°00'0 0.7
2018-Apr-17 03:30N 51°58' E 003°60'0 0.0
2018-Apr-17 03:00N 51°58' E 003°60'0 0.0
2018-Apr-17 02:30N 51°58' E 003°60'0 0.0
2018-Apr-17 02:00N 51°58' E 003°60'0 0.0
2018-Apr-17 01:30N 51°58' E 003°60'0 0.2
2018-Apr-17 01:00N 51°58' E 003°60'1 2.2
2018-Apr-17 00:30N 51°59' E 004°01'3 6.0
2018-Apr-17 00:00N 51°56' E 004°04'1 2.1
2018-Apr-16 23:29N 51°57' E 004°02'0 0.0
2018-Apr-16 23:00N 51°57' E 004°02'0 0.0
2018-Apr-16 22:30N 51°57' E 004°02'0 0.0
2018-Apr-16 22:00N 51°57' E 004°02'0 0.0
2018-Apr-16 21:25N 51°57' E 004°02'0 0.0
2018-Apr-16 20:59N 51°57' E 004°02'0 0.0
2018-Apr-16 20:23N 51°57' E 004°02'0 0.5
2018-Apr-16 20:00N 51°56' E 004°02'0 0.2
2018-Apr-16 19:30N 51°56' E 004°02'2 3.8
2018-Apr-16 19:00N 51°58' E 004°04'1 2.3
2018-Apr-16 18:30N 51°58' E 004°03'0 0.0
2018-Apr-16 18:00N 51°58' E 004°03'0 0.0
2018-Apr-16 17:30N 51°58' E 004°03'1 2.9
2018-Apr-16 17:00N 51°58' E 004°00'1 2.3
2018-Apr-16 16:30N 51°57' E 004°01'1 2.5
2018-Apr-16 16:00N 51°59' E 004°01'4 7.5
2018-Apr-16 15:30N 51°56' E 004°06'4 7.9
2018-Apr-16 15:00N 51°55' E 004°11'3 6.8
2018-Apr-16 14:30N 51°52' E 004°15'3 5.7
2018-Apr-16 14:00N 51°53' E 004°20'2 4.6
2018-Apr-16 13:30N 51°54' E 004°23'2 4.4
2018-Apr-16 13:00N 51°54' E 004°26'0 0.2
2018-Apr-16 12:30N 51°54' E 004°26'0 0.0
2018-Apr-16 12:00N 51°54' E 004°26'1 2.3
2018-Apr-16 11:30N 51°53' E 004°24'1 1.1
2018-Apr-16 11:00N 51°53' E 004°25'1 1.3
2018-Apr-16 10:30N 51°53' E 004°24'0 0.1
2018-Apr-16 10:00N 51°53' E 004°24'2 3.2
2018-Apr-16 09:30N 51°54' E 004°25'4 7.1
2018-Apr-16 09:00N 51°54' E 004°31'4 8.4
2018-Apr-16 08:30N 51°53' E 004°38'3 5.4
2018-Apr-16 08:00N 51°51' E 004°40'0 0.0
2018-Apr-16 07:30N 51°51' E 004°40'0 0.0
2018-Apr-16 07:00N 51°51' E 004°40'0 0.0
2018-Apr-16 06:30N 51°51' E 004°40'0 0.0
2018-Apr-16 06:00N 51°51' E 004°40'0 0.0
2018-Apr-16 05:30N 51°51' E 004°40'1 2.7
2018-Apr-16 05:00N 51°49' E 004°40'4 7.8
2018-Apr-16 04:30N 51°49' E 004°47'4 7.7
2018-Apr-16 04:00N 51°49' E 004°53'5 9.0
2018-Apr-16 03:29N 51°49' E 005°00'5 9.6
2018-Apr-16 02:59N 51°49' E 005°08'510.2
2018-Apr-16 02:30N 51°49' E 005°16'4 8.4
2018-Apr-16 02:00N 51°49' E 005°23'510.2
2018-Apr-16 01:30N 51°53' E 005°28'510.5
2018-Apr-16 01:00N 51°54' E 005°36'610.7
2018-Apr-16 00:28N 51°53' E 005°46'5 8.9
2018-Apr-15 23:52N 51°52' E 005°54'3 7.9
2018-Apr-15 23:28N 51°52' E 005°59'4 9.0
2018-Apr-15 23:00N 51°51' E 006°06'15 9.5
2018-Apr-15 21:27N 51°43' E 006°25'4 9.9
2018-Apr-15 21:00N 51°40' E 006°31'4 7.5
2018-Apr-15 20:30N 51°37' E 006°35'4 7.8
2018-Apr-15 20:00N 51°35' E 006°40'5 9.6
2018-Apr-15 19:30N 51°30' E 006°44'4 7.2
2018-Apr-15 19:00N 51°27' E 006°43'5 8.6
2018-Apr-15 18:28N 51°22' E 006°41'4 8.0
2018-Apr-15 18:00N 51°19' E 006°44'4 8.8
2018-Apr-15 17:30N 51°15' E 006°45'4 7.2
2018-Apr-15 17:00N 51°11' E 006°44'4 8.4
2018-Apr-15 16:30N 51°09' E 006°49'3 6.7
2018-Apr-15 16:00N 51°07' E 006°53'4 8.3
2018-Apr-15 15:30N 51°03' E 006°56'5 9.7
2018-Apr-15 15:00N 50°59' E 006°60'5 9.6
2018-Apr-15 14:30N 50°54' E 006°59'3 5.7
2018-Apr-15 14:00N 50°51' E 007°00'4 8.3
2018-Apr-15 13:30N 50°47' E 007°02'510.8
2018-Apr-15 13:00N 50°43' E 007°08'510.8
2018-Apr-15 12:30N 50°39' E 007°13'6 9.5
2018-Apr-15 11:54N 50°34' E 007°17'69 7.3
2018-Apr-15 02:24N 49°39' E 008°22'410.0
2018-Apr-15 02:00N 49°35' E 008°25'5 9.6
2018-Apr-15 01:30N 49°30' E 008°26'4 7.6
2018-Apr-15 01:00N 49°27' E 008°28'113 3.6
2018-Apr-13 17:32N 47°40' E 007°31'0 6.2
2018-Apr-13 17:30N 47°40' E 007°31'1 1.0
2018-Apr-13 16:59N 47°39' E 007°32'1 1.8
2018-Apr-13 16:30N 47°38' E 007°32'4 7.1
2018-Apr-13 16:00N 47°36' E 007°35'1 1.1
2018-Apr-13 15:30N 47°35' E 007°35'0 0.0
2018-Apr-13 11:24N 47°35' E 007°35'0 0.9
2018-Apr-13 10:59N 47°35' E 007°36'0 0.1
2018-Apr-13 10:30N 47°35' E 007°36'0 0.1
2018-Apr-13 10:00N 47°35' E 007°36'0 0.1
2018-Apr-13 09:30N 47°35' E 007°36'0 0.0
2018-Apr-13 09:00N 47°35' E 007°36'0 0.0
2018-Apr-13 08:30N 47°35' E 007°36'0 0.0
2018-Apr-13 08:00N 47°35' E 007°36'0 0.0
2018-Apr-13 07:30N 47°35' E 007°36'0 0.0
2018-Apr-13 07:00N 47°35' E 007°36'0 0.0
2018-Apr-13 06:30N 47°35' E 007°36'0 0.0
2018-Apr-13 06:00N 47°35' E 007°36'0 0.0
2018-Apr-13 05:30N 47°35' E 007°36'0 0.0
2018-Apr-13 05:00N 47°35' E 007°36'0 0.1
2018-Apr-13 04:30N 47°35' E 007°36'0 0.0
2018-Apr-13 04:00N 47°35' E 007°36'0 0.0
2018-Apr-13 03:30N 47°35' E 007°36'0 0.0
2018-Apr-13 03:00N 47°35' E 007°36'0 0.0
2018-Apr-13 02:30N 47°35' E 007°36'0 0.1
2018-Apr-13 02:00N 47°35' E 007°36'0 0.0
2018-Apr-13 01:30N 47°35' E 007°36'0 0.0
2018-Apr-13 01:00N 47°35' E 007°36'0 0.0
2018-Apr-13 00:30N 47°35' E 007°36'0 0.0
2018-Apr-12 23:59N 47°35' E 007°36'0 0.0
2018-Apr-12 23:30N 47°35' E 007°36'0 0.0
2018-Apr-12 23:00N 47°35' E 007°36'0 0.0
2018-Apr-12 22:30N 47°35' E 007°36'0 0.0
2018-Apr-12 22:00N 47°35' E 007°36'0 0.0
2018-Apr-12 21:30N 47°35' E 007°36'0 0.0
2018-Apr-12 21:00N 47°35' E 007°36'0 0.0
2018-Apr-12 20:30N 47°35' E 007°36'0 0.0
2018-Apr-12 19:59N 47°35' E 007°36'0 0.0
2018-Apr-12 19:30N 47°35' E 007°36'0 0.0
2018-Apr-12 19:00N 47°35' E 007°36'0 0.0
2018-Apr-12 18:30N 47°35' E 007°36'0 0.1
2018-Apr-12 18:00N 47°35' E 007°36'0 0.1
2018-Apr-12 17:30N 47°35' E 007°36'0 0.0
2018-Apr-12 17:00N 47°35' E 007°36'0 0.0
2018-Apr-12 16:30N 47°35' E 007°36'0 0.0
2018-Apr-12 16:00N 47°35' E 007°36'0 0.1
2018-Apr-12 15:30N 47°35' E 007°36'0 0.0
2018-Apr-12 14:59N 47°35' E 007°36'0 0.0
2018-Apr-12 14:30N 47°35' E 007°36'0 0.0
2018-Apr-12 14:00N 47°35' E 007°36'0 0.0
2018-Apr-12 13:30N 47°35' E 007°36'0 0.0
2018-Apr-12 13:00N 47°35' E 007°36'0 0.0
2018-Apr-12 12:30N 47°35' E 007°36'0 0.0
2018-Apr-12 12:00N 47°35' E 007°36'0 0.0
2018-Apr-12 11:30N 47°35' E 007°36'0 0.0
2018-Apr-12 11:00N 47°35' E 007°36'0 0.1
2018-Apr-12 10:30N 47°35' E 007°36'0 0.0
2018-Apr-12 10:00N 47°35' E 007°36'1 1.6
2018-Apr-12 09:24N 47°34' E 007°35'2 4.1
2018-Apr-12 09:00N 47°34' E 007°37'1 1.9
2018-Apr-12 08:29N 47°33' E 007°39'1 2.2
2018-Apr-12 08:00N 47°32' E 007°40'0 0.0
2018-Apr-12 07:30N 47°32' E 007°40'0 0.0
2018-Apr-12 07:00N 47°32' E 007°40'0 0.0
2018-Apr-12 06:30N 47°32' E 007°40'0 0.0
2018-Apr-12 06:00N 47°32' E 007°40'0 0.0
2018-Apr-12 05:30N 47°32' E 007°40'0 0.0
2018-Apr-12 05:00N 47°32' E 007°40'0 0.0
2018-Apr-12 04:30N 47°32' E 007°40'0 0.0
2018-Apr-12 04:00N 47°32' E 007°40'1 1.4
2018-Apr-12 03:30N 47°33' E 007°39'0 0.0
2018-Apr-12 03:00N 47°33' E 007°39'0 0.0
2018-Apr-12 02:30N 47°33' E 007°39'0 0.0
2018-Apr-12 02:00N 47°33' E 007°39'0 0.0
2018-Apr-12 01:30N 47°33' E 007°39'0 0.0
2018-Apr-12 00:59N 47°33' E 007°39'0 0.0
2018-Apr-12 00:29N 47°33' E 007°39'0 0.0
2018-Apr-12 00:00N 47°33' E 007°39'0 0.0
2018-Apr-11 23:30N 47°33' E 007°39'0 0.0
2018-Apr-11 23:00N 47°33' E 007°39'0 0.0
2018-Apr-11 22:30N 47°33' E 007°39'0 0.0
2018-Apr-11 21:59N 47°33' E 007°39'0 0.0
2018-Apr-11 21:30N 47°33' E 007°39'0 0.0
2018-Apr-11 21:00N 47°33' E 007°39'0 0.0
2018-Apr-11 20:30N 47°33' E 007°39'0 0.0
2018-Apr-11 20:00N 47°33' E 007°39'0 0.0
2018-Apr-11 19:29N 47°33' E 007°39'0 0.0
2018-Apr-11 19:00N 47°33' E 007°39'0 0.0
2018-Apr-11 18:30N 47°33' E 007°39'0 0.0
2018-Apr-11 18:00N 47°33' E 007°39'0 0.0
2018-Apr-11 17:30N 47°33' E 007°39'0 0.0
2018-Apr-11 17:00N 47°33' E 007°39'0 0.0
2018-Apr-11 16:30N 47°33' E 007°39'0 0.0
2018-Apr-11 16:00N 47°33' E 007°39'0 0.0
2018-Apr-11 15:30N 47°33' E 007°39'0 0.0
2018-Apr-11 15:00N 47°33' E 007°39'0 0.0
2018-Apr-11 14:30N 47°33' E 007°39'0 0.0
2018-Apr-11 14:00N 47°33' E 007°39'0 0.0
2018-Apr-11 13:30N 47°33' E 007°39'0 0.0
2018-Apr-11 13:00N 47°33' E 007°39'0 0.0
2018-Apr-11 12:28N 47°33' E 007°39'0 0.0
2018-Apr-11 12:00N 47°33' E 007°39'0 0.0
2018-Apr-11 11:29N 47°33' E 007°39'0 0.0
2018-Apr-11 11:00N 47°33' E 007°39'0 0.0
2018-Apr-11 10:30N 47°33' E 007°39'0 0.0
2018-Apr-11 09:59N 47°33' E 007°39'0 0.0
2018-Apr-11 09:30N 47°33' E 007°39'0 0.0
2018-Apr-11 09:00N 47°33' E 007°39'0 0.0
2018-Apr-11 08:30N 47°33' E 007°39'0 0.0
2018-Apr-11 08:00N 47°33' E 007°39'0 0.0
2018-Apr-11 07:30N 47°33' E 007°39'1 1.4
2018-Apr-11 07:00N 47°32' E 007°40'2 3.3
2018-Apr-11 06:30N 47°34' E 007°38'1 2.2
2018-Apr-11 06:00N 47°33' E 007°36'1 2.7
2018-Apr-11 05:30N 47°35' E 007°35'1 1.6
2018-Apr-11 04:59N 47°35' E 007°36'0 0.0
2018-Apr-11 04:30N 47°35' E 007°36'0 0.0
2018-Apr-11 04:00N 47°35' E 007°36'  
Track history (hours):
 
Tides and Currents Weather Stations Pressure Air Temp Water Temp Dewpoint Dewpoint Depression Visibility Wind Speed Wind Dir Waves Ship Positions

Alsace

Last reported at 2018-Apr-21 04:00 UTC. Time now 2018-Apr-21 04:10 UTC.
Position N 51°50' E 006°13'.

Length 178 m; draft 2 m.

Type: Ship. MMSI: 244660556.

Date/timePositionNaut miles runAvg speedWind from/ knotsBaromVisibWave heightAir tempDewpointWater temp
2018-Apr-21 04:00N 51°50' E 006°13'3 6.5
2018-Apr-21 03:30N 51°51' E 006°08'3 6.8
2018-Apr-21 03:00N 51°52' E 006°03'3 5.4
2018-Apr-21 02:30N 51°52' E 005°59'4 5.8
2018-Apr-21 01:54N 51°52' E 005°53'2 5.1
2018-Apr-21 01:27N 51°52' E 005°50'5 7.0
2018-Apr-21 00:48N 51°54' E 005°43'2 7.0
2018-Apr-21 00:30N 51°54' E 005°39'3 7.0
2018-Apr-21 00:00N 51°54' E 005°34'4 6.9
2018-Apr-20 23:29N 51°53' E 005°28'4 6.2
2018-Apr-20 22:54N 51°50' E 005°24'3 7.1
2018-Apr-20 22:30N 51°48' E 005°22'3 6.2
2018-Apr-20 21:59N 51°49' E 005°17'4 7.0
2018-Apr-20 21:28N 51°49' E 005°11'3 7.2
2018-Apr-20 21:00N 51°50' E 005°06'4 7.8
2018-Apr-20 20:30N 51°49' E 004°59'4 8.5
2018-Apr-20 20:00N 51°49' E 004°52'5 9.7
2018-Apr-20 19:30N 51°49' E 004°45'4 8.0
2018-Apr-20 19:00N 51°51' E 004°39'5 9.7
2018-Apr-20 18:30N 51°54' E 004°33'2 4.6
2018-Apr-20 18:00N 51°54' E 004°29'1 1.2
2018-Apr-20 17:30N 51°54' E 004°28'2 4.3
2018-Apr-20 17:00N 51°53' E 004°25'0 0.0
2018-Apr-20 16:30N 51°53' E 004°25'0 0.1
2018-Apr-20 16:00N 51°53' E 004°25'0 0.0
2018-Apr-20 15:30N 51°53' E 004°25'0 0.0
2018-Apr-20 15:00N 51°53' E 004°25'0 0.6
2018-Apr-20 14:30N 51°53' E 004°24'0 0.0
2018-Apr-20 13:57N 51°53' E 004°24'0 0.0
2018-Apr-20 13:27N 51°53' E 004°24'0 0.0
2018-Apr-20 12:54N 51°53' E 004°24'0 0.0
2018-Apr-20 12:30N 51°53' E 004°24'0 0.0
2018-Apr-20 12:00N 51°53' E 004°24'0 0.0
2018-Apr-20 11:29N 51°53' E 004°24'0 0.0
2018-Apr-20 10:55N 51°53' E 004°24'0 0.0
2018-Apr-20 10:27N 51°53' E 004°24'1 1.9
2018-Apr-20 09:59N 51°54' E 004°23'3 5.5
2018-Apr-20 09:30N 51°54' E 004°19'2 4.9
2018-Apr-20 09:00N 51°55' E 004°15'2 4.7
2018-Apr-20 08:30N 51°56' E 004°12'3 5.4
2018-Apr-20 08:00N 51°58' E 004°09'3 5.8
2018-Apr-20 07:30N 51°58' E 004°04'2 4.5
2018-Apr-20 07:00N 51°58' E 004°00'0 0.3
2018-Apr-20 06:30N 51°57' E 004°01'0 0.0
2018-Apr-20 06:00N 51°57' E 004°01'0 0.0
2018-Apr-20 05:30N 51°57' E 004°01'0 0.0
2018-Apr-20 05:00N 51°57' E 004°01'0 0.0
2018-Apr-20 04:30N 51°57' E 004°01'0 0.0
2018-Apr-20 04:00N 51°57' E 004°01'0 0.0
2018-Apr-20 03:30N 51°57' E 004°01'0 0.0
2018-Apr-20 03:00N 51°57' E 004°01'0 0.0
2018-Apr-20 02:30N 51°57' E 004°01'0 0.0
2018-Apr-20 02:00N 51°57' E 004°01'0 0.0
2018-Apr-20 01:30N 51°57' E 004°01'0 0.0
2018-Apr-20 01:00N 51°57' E 004°01'0 0.0
2018-Apr-20 00:30N 51°57' E 004°01'0 0.2
2018-Apr-20 00:00N 51°57' E 004°01'0 0.0
2018-Apr-19 23:30N 51°57' E 004°01'0 0.0
2018-Apr-19 23:00N 51°57' E 004°01'0 0.0
2018-Apr-19 22:30N 51°57' E 004°01'0 0.0
2018-Apr-19 22:00N 51°57' E 004°01'0 0.0
2018-Apr-19 21:30N 51°57' E 004°01'0 0.5
2018-Apr-19 21:00N 51°58' E 004°00'2 4.7
2018-Apr-19 20:30N 51°58' E 004°04'4 8.2
2018-Apr-19 20:00N 51°56' E 004°10'5 9.0
2018-Apr-19 19:30N 51°52' E 004°15'4 7.9
2018-Apr-19 19:00N 51°51' E 004°21'4 7.4
2018-Apr-19 18:30N 51°50' E 004°27'4 7.3
2018-Apr-19 18:00N 51°50' E 004°33'3 6.4
2018-Apr-19 17:30N 51°48' E 004°37'4 7.3
2018-Apr-19 17:00N 51°49' E 004°43'0 0.9
2018-Apr-19 16:30N 51°50' E 004°43'0 0.0
2018-Apr-19 16:00N 51°50' E 004°43'0 0.0
2018-Apr-19 15:30N 51°50' E 004°43'0 0.0
2018-Apr-19 15:00N 51°50' E 004°43'0 0.0
2018-Apr-19 14:30N 51°50' E 004°43'0 0.0
2018-Apr-19 14:00N 51°50' E 004°43'0 0.0
2018-Apr-19 13:30N 51°50' E 004°43'0 0.0
2018-Apr-19 13:00N 51°50' E 004°43'0 0.0
2018-Apr-19 12:30N 51°50' E 004°43'0 0.0
2018-Apr-19 12:00N 51°50' E 004°43'0 0.0
2018-Apr-19 11:30N 51°50' E 004°43'0 0.0
2018-Apr-19 11:00N 51°50' E 004°43'0 0.0
2018-Apr-19 10:30N 51°50' E 004°43'0 0.0
2018-Apr-19 10:00N 51°50' E 004°43'0 0.0
2018-Apr-19 09:30N 51°50' E 004°43'0 0.0
2018-Apr-19 09:00N 51°50' E 004°43'0 0.0
2018-Apr-19 08:30N 51°50' E 004°43'0 0.0
2018-Apr-19 08:00N 51°50' E 004°43'0 0.0
2018-Apr-19 07:30N 51°50' E 004°43'0 0.0
2018-Apr-19 07:00N 51°50' E 004°43'0 0.0
2018-Apr-19 06:30N 51°50' E 004°43'0 0.0
2018-Apr-19 06:00N 51°50' E 004°43'0 0.0
2018-Apr-19 05:30N 51°50' E 004°43'0 0.3
2018-Apr-19 05:00N 51°50' E 004°43'0 0.3
2018-Apr-19 04:30N 51°50' E 004°43'0 0.0
2018-Apr-19 04:00N 51°50' E 004°43'0 0.0
2018-Apr-19 03:30N 51°50' E 004°43'0 0.0
2018-Apr-19 03:00N 51°50' E 004°43'0 0.0
2018-Apr-19 02:30N 51°50' E 004°43'0 0.0
2018-Apr-19 02:00N 51°50' E 004°43'0 0.0
2018-Apr-19 01:30N 51°50' E 004°43'0 0.0
2018-Apr-19 01:00N 51°50' E 004°43'0 0.0
2018-Apr-19 00:30N 51°50' E 004°43'0 0.0
2018-Apr-19 00:00N 51°50' E 004°43'0 0.0
2018-Apr-18 23:30N 51°50' E 004°43'0 0.0
2018-Apr-18 23:00N 51°50' E 004°43'0 0.0
2018-Apr-18 22:30N 51°50' E 004°43'0 0.0
2018-Apr-18 22:00N 51°50' E 004°43'0 0.0
2018-Apr-18 21:30N 51°50' E 004°43'0 0.0
2018-Apr-18 21:00N 51°50' E 004°43'0 0.0
2018-Apr-18 20:30N 51°50' E 004°43'0 0.0
2018-Apr-18 20:00N 51°50' E 004°43'0 0.0
2018-Apr-18 19:30N 51°50' E 004°43'0 0.0
2018-Apr-18 19:00N 51°50' E 004°43'0 0.0
2018-Apr-18 18:30N 51°50' E 004°43'0 0.0
2018-Apr-18 18:00N 51°50' E 004°43'0 0.0
2018-Apr-18 17:30N 51°50' E 004°43'0 0.0
2018-Apr-18 17:00N 51°50' E 004°43'0 0.0
2018-Apr-18 16:30N 51°50' E 004°43'0 0.0
2018-Apr-18 16:00N 51°50' E 004°43'0 0.0
2018-Apr-18 15:30N 51°50' E 004°43'0 0.0
2018-Apr-18 15:00N 51°50' E 004°43'0 0.0
2018-Apr-18 14:30N 51°50' E 004°43'0 0.0
2018-Apr-18 14:00N 51°50' E 004°43'0 0.0
2018-Apr-18 13:30N 51°50' E 004°43'0 0.0
2018-Apr-18 13:00N 51°50' E 004°43'0 0.0
2018-Apr-18 12:30N 51°50' E 004°43'0 0.0
2018-Apr-18 12:00N 51°50' E 004°43'0 0.0
2018-Apr-18 11:30N 51°50' E 004°43'0 0.0
2018-Apr-18 11:00N 51°50' E 004°43'0 0.0
2018-Apr-18 10:30N 51°50' E 004°43'0 0.0
2018-Apr-18 10:00N 51°50' E 004°43'0 0.0
2018-Apr-18 09:30N 51°50' E 004°43'0 0.0
2018-Apr-18 09:00N 51°50' E 004°43'0 0.0
2018-Apr-18 08:30N 51°50' E 004°43'0 0.0
2018-Apr-18 08:00N 51°50' E 004°43'0 0.0
2018-Apr-18 07:30N 51°50' E 004°43'0 0.0
2018-Apr-18 07:00N 51°50' E 004°43'0 0.0
2018-Apr-18 06:30N 51°50' E 004°43'0 0.0
2018-Apr-18 06:00N 51°50' E 004°43'0 0.0
2018-Apr-18 05:30N 51°50' E 004°43'0 0.0
2018-Apr-18 05:00N 51°50' E 004°43'0 0.0
2018-Apr-18 04:30N 51°50' E 004°43'0 0.0
2018-Apr-18 04:00N 51°50' E 004°43'0 0.0
2018-Apr-18 03:30N 51°50' E 004°43'0 0.0
2018-Apr-18 03:00N 51°50' E 004°43'0 0.0
2018-Apr-18 02:30N 51°50' E 004°43'0 0.0
2018-Apr-18 02:00N 51°50' E 004°43'0 0.0
2018-Apr-18 01:30N 51°50' E 004°43'0 0.0
2018-Apr-18 01:00N 51°50' E 004°43'0 0.0
2018-Apr-18 00:30N 51°50' E 004°43'0 0.0
2018-Apr-18 00:00N 51°50' E 004°43'0 0.0
2018-Apr-17 23:30N 51°50' E 004°43'0 0.0
2018-Apr-17 23:00N 51°50' E 004°43'0 0.0
2018-Apr-17 22:30N 51°50' E 004°43'0 0.0
2018-Apr-17 22:00N 51°50' E 004°43'0 0.0
2018-Apr-17 21:30N 51°50' E 004°43'0 0.0
2018-Apr-17 21:00N 51°50' E 004°43'0 0.0
2018-Apr-17 20:30N 51°50' E 004°43'0 0.0
2018-Apr-17 20:00N 51°50' E 004°43'0 0.0
2018-Apr-17 19:30N 51°50' E 004°43'0 0.0
2018-Apr-17 19:00N 51°50' E 004°43'0 0.0
2018-Apr-17 18:30N 51°50' E 004°43'0 0.0
2018-Apr-17 18:00N 51°50' E 004°43'0 0.0
2018-Apr-17 17:30N 51°50' E 004°43'0 0.0
2018-Apr-17 17:00N 51°50' E 004°43'0 0.0
2018-Apr-17 16:30N 51°50' E 004°43'0 0.4
2018-Apr-17 16:00N 51°50' E 004°44'0 0.5
2018-Apr-17 15:30N 51°50' E 004°43'0 0.0
2018-Apr-17 15:00N 51°50' E 004°43'0 0.0
2018-Apr-17 14:30N 51°50' E 004°43'0 0.2
2018-Apr-17 14:00N 51°50' E 004°43'0 0.1
2018-Apr-17 13:30N 51°50' E 004°43'0 0.0
2018-Apr-17 13:00N 51°50' E 004°43'0 0.5
2018-Apr-17 12:30N 51°50' E 004°43'0 0.5
2018-Apr-17 12:00N 51°50' E 004°43'0 0.0
2018-Apr-17 11:30N 51°50' E 004°43'1 2.9
2018-Apr-17 11:00N 51°49' E 004°41'2 4.1
2018-Apr-17 10:30N 51°48' E 004°38'3 6.8
2018-Apr-17 10:00N 51°50' E 004°33'3 6.6
2018-Apr-17 09:30N 51°50' E 004°28'3 6.8
2018-Apr-17 09:00N 51°51' E 004°23'3 6.3
2018-Apr-17 08:30N 51°52' E 004°18'3 6.0
2018-Apr-17 08:00N 51°53' E 004°14'3 6.3
2018-Apr-17 07:30N 51°56' E 004°10'3 5.3
2018-Apr-17 07:00N 51°56' E 004°06'1 2.3
2018-Apr-17 06:30N 51°57' E 004°04'0 0.0
2018-Apr-17 06:00N 51°57' E 004°04'0 0.1
2018-Apr-17 05:30N 51°57' E 004°05'0 0.0
2018-Apr-17 05:00N 51°57' E 004°05'1 1.3
2018-Apr-17 04:30N 51°58' E 004°04'3 5.3
2018-Apr-17 04:00N 51°58' E 004°00'0 0.7
2018-Apr-17 03:30N 51°58' E 003°60'0 0.0
2018-Apr-17 03:00N 51°58' E 003°60'0 0.0
2018-Apr-17 02:30N 51°58' E 003°60'0 0.0
2018-Apr-17 02:00N 51°58' E 003°60'0 0.0
2018-Apr-17 01:30N 51°58' E 003°60'0 0.2
2018-Apr-17 01:00N 51°58' E 003°60'1 2.2
2018-Apr-17 00:30N 51°59' E 004°01'3 6.0
2018-Apr-17 00:00N 51°56' E 004°04'1 2.1
2018-Apr-16 23:29N 51°57' E 004°02'0 0.0
2018-Apr-16 23:00N 51°57' E 004°02'0 0.0
2018-Apr-16 22:30N 51°57' E 004°02'0 0.0
2018-Apr-16 22:00N 51°57' E 004°02'0 0.0
2018-Apr-16 21:25N 51°57' E 004°02'0 0.0
2018-Apr-16 20:59N 51°57' E 004°02'0 0.0
2018-Apr-16 20:23N 51°57' E 004°02'0 0.5
2018-Apr-16 20:00N 51°56' E 004°02'0 0.2
2018-Apr-16 19:30N 51°56' E 004°02'2 3.8
2018-Apr-16 19:00N 51°58' E 004°04'1 2.3
2018-Apr-16 18:30N 51°58' E 004°03'0 0.0
2018-Apr-16 18:00N 51°58' E 004°03'0 0.0
2018-Apr-16 17:30N 51°58' E 004°03'1 2.9
2018-Apr-16 17:00N 51°58' E 004°00'1 2.3
2018-Apr-16 16:30N 51°57' E 004°01'1 2.5
2018-Apr-16 16:00N 51°59' E 004°01'4 7.5
2018-Apr-16 15:30N 51°56' E 004°06'4 7.9
2018-Apr-16 15:00N 51°55' E 004°11'3 6.8
2018-Apr-16 14:30N 51°52' E 004°15'3 5.7
2018-Apr-16 14:00N 51°53' E 004°20'2 4.6
2018-Apr-16 13:30N 51°54' E 004°23'2 4.4
2018-Apr-16 13:00N 51°54' E 004°26'0 0.2
2018-Apr-16 12:30N 51°54' E 004°26'0 0.0
2018-Apr-16 12:00N 51°54' E 004°26'1 2.3
2018-Apr-16 11:30N 51°53' E 004°24'1 1.1
2018-Apr-16 11:00N 51°53' E 004°25'1 1.3
2018-Apr-16 10:30N 51°53' E 004°24'0 0.1
2018-Apr-16 10:00N 51°53' E 004°24'2 3.2
2018-Apr-16 09:30N 51°54' E 004°25'4 7.1
2018-Apr-16 09:00N 51°54' E 004°31'4 8.4
2018-Apr-16 08:30N 51°53' E 004°38'3 5.4
2018-Apr-16 08:00N 51°51' E 004°40'0 0.0
2018-Apr-16 07:30N 51°51' E 004°40'0 0.0
2018-Apr-16 07:00N 51°51' E 004°40'0 0.0
2018-Apr-16 06:30N 51°51' E 004°40'0 0.0
2018-Apr-16 06:00N 51°51' E 004°40'0 0.0
2018-Apr-16 05:30N 51°51' E 004°40'1 2.7
2018-Apr-16 05:00N 51°49' E 004°40'4 7.8
2018-Apr-16 04:30N 51°49' E 004°47'4 7.7
2018-Apr-16 04:00N 51°49' E 004°53'5 9.0
2018-Apr-16 03:29N 51°49' E 005°00'5 9.6
2018-Apr-16 02:59N 51°49' E 005°08'510.2
2018-Apr-16 02:30N 51°49' E 005°16'4 8.4
2018-Apr-16 02:00N 51°49' E 005°23'510.2
2018-Apr-16 01:30N 51°53' E 005°28'510.5
2018-Apr-16 01:00N 51°54' E 005°36'610.7
2018-Apr-16 00:28N 51°53' E 005°46'5 8.9
2018-Apr-15 23:52N 51°52' E 005°54'3 7.9
2018-Apr-15 23:28N 51°52' E 005°59'4 9.0
2018-Apr-15 23:00N 51°51' E 006°06'15 9.5
2018-Apr-15 21:27N 51°43' E 006°25'4 9.9
2018-Apr-15 21:00N 51°40' E 006°31'4 7.5
2018-Apr-15 20:30N 51°37' E 006°35'4 7.8
2018-Apr-15 20:00N 51°35' E 006°40'5 9.6
2018-Apr-15 19:30N 51°30' E 006°44'4 7.2
2018-Apr-15 19:00N 51°27' E 006°43'5 8.6
2018-Apr-15 18:28N 51°22' E 006°41'4 8.0
2018-Apr-15 18:00N 51°19' E 006°44'4 8.8
2018-Apr-15 17:30N 51°15' E 006°45'4 7.2
2018-Apr-15 17:00N 51°11' E 006°44'4 8.4
2018-Apr-15 16:30N 51°09' E 006°49'3 6.7
2018-Apr-15 16:00N 51°07' E 006°53'4 8.3
2018-Apr-15 15:30N 51°03' E 006°56'5 9.7
2018-Apr-15 15:00N 50°59' E 006°60'5 9.6
2018-Apr-15 14:30N 50°54' E 006°59'3 5.7
2018-Apr-15 14:00N 50°51' E 007°00'4 8.3
2018-Apr-15 13:30N 50°47' E 007°02'510.8
2018-Apr-15 13:00N 50°43' E 007°08'510.8
2018-Apr-15 12:30N 50°39' E 007°13'6 9.5
2018-Apr-15 11:54N 50°34' E 007°17'69 7.3
2018-Apr-15 02:24N 49°39' E 008°22'410.0
2018-Apr-15 02:00N 49°35' E 008°25'5 9.6
2018-Apr-15 01:30N 49°30' E 008°26'4 7.6
2018-Apr-15 01:00N 49°27' E 008°28'113 3.6
2018-Apr-13 17:32N 47°40' E 007°31'0 6.2
2018-Apr-13 17:30N 47°40' E 007°31'1 1.0
2018-Apr-13 16:59N 47°39' E 007°32'1 1.8
2018-Apr-13 16:30N 47°38' E 007°32'4 7.1
2018-Apr-13 16:00N 47°36' E 007°35'1 1.1
2018-Apr-13 15:30N 47°35' E 007°35'0 0.0
2018-Apr-13 11:24N 47°35' E 007°35'0 0.9
2018-Apr-13 10:59N 47°35' E 007°36'0 0.1
2018-Apr-13 10:30N 47°35' E 007°36'0 0.1
2018-Apr-13 10:00N 47°35' E 007°36'0 0.1
2018-Apr-13 09:30N 47°35' E 007°36'0 0.0
2018-Apr-13 09:00N 47°35' E 007°36'0 0.0
2018-Apr-13 08:30N 47°35' E 007°36'0 0.0
2018-Apr-13 08:00N 47°35' E 007°36'0 0.0
2018-Apr-13 07:30N 47°35' E 007°36'0 0.0
2018-Apr-13 07:00N 47°35' E 007°36'0 0.0
2018-Apr-13 06:30N 47°35' E 007°36'0 0.0
2018-Apr-13 06:00N 47°35' E 007°36'0 0.0
2018-Apr-13 05:30N 47°35' E 007°36'0 0.0
2018-Apr-13 05:00N 47°35' E 007°36'0 0.1
2018-Apr-13 04:30N 47°35' E 007°36'0 0.0
2018-Apr-13 04:00N 47°35' E 007°36'0 0.0
2018-Apr-13 03:30N 47°35' E 007°36'0 0.0
2018-Apr-13 03:00N 47°35' E 007°36'0 0.0
2018-Apr-13 02:30N 47°35' E 007°36'0 0.1
2018-Apr-13 02:00N 47°35' E 007°36'0 0.0
2018-Apr-13 01:30N 47°35' E 007°36'0 0.0
2018-Apr-13 01:00N 47°35' E 007°36'0 0.0
2018-Apr-13 00:30N 47°35' E 007°36'0 0.0
2018-Apr-12 23:59N 47°35' E 007°36'0 0.0
2018-Apr-12 23:30N 47°35' E 007°36'0 0.0
2018-Apr-12 23:00N 47°35' E 007°36'0 0.0
2018-Apr-12 22:30N 47°35' E 007°36'0 0.0
2018-Apr-12 22:00N 47°35' E 007°36'0 0.0
2018-Apr-12 21:30N 47°35' E 007°36'0 0.0
2018-Apr-12 21:00N 47°35' E 007°36'0 0.0
2018-Apr-12 20:30N 47°35' E 007°36'0 0.0
2018-Apr-12 19:59N 47°35' E 007°36'0 0.0
2018-Apr-12 19:30N 47°35' E 007°36'0 0.0
2018-Apr-12 19:00N 47°35' E 007°36'0 0.0
2018-Apr-12 18:30N 47°35' E 007°36'0 0.1
2018-Apr-12 18:00N 47°35' E 007°36'0 0.1
2018-Apr-12 17:30N 47°35' E 007°36'0 0.0
2018-Apr-12 17:00N 47°35' E 007°36'0 0.0
2018-Apr-12 16:30N 47°35' E 007°36'0 0.0
2018-Apr-12 16:00N 47°35' E 007°36'0 0.1
2018-Apr-12 15:30N 47°35' E 007°36'0 0.0
2018-Apr-12 14:59N 47°35' E 007°36'0 0.0
2018-Apr-12 14:30N 47°35' E 007°36'0 0.0
2018-Apr-12 14:00N 47°35' E 007°36'0 0.0
2018-Apr-12 13:30N 47°35' E 007°36'0 0.0
2018-Apr-12 13:00N 47°35' E 007°36'0 0.0
2018-Apr-12 12:30N 47°35' E 007°36'0 0.0
2018-Apr-12 12:00N 47°35' E 007°36'0 0.0
2018-Apr-12 11:30N 47°35' E 007°36'0 0.0
2018-Apr-12 11:00N 47°35' E 007°36'0 0.1
2018-Apr-12 10:30N 47°35' E 007°36'0 0.0
2018-Apr-12 10:00N 47°35' E 007°36'1 1.6
2018-Apr-12 09:24N 47°34' E 007°35'2 4.1
2018-Apr-12 09:00N 47°34' E 007°37'1 1.9
2018-Apr-12 08:29N 47°33' E 007°39'1 2.2
2018-Apr-12 08:00N 47°32' E 007°40'0 0.0
2018-Apr-12 07:30N 47°32' E 007°40'0 0.0
2018-Apr-12 07:00N 47°32' E 007°40'0 0.0
2018-Apr-12 06:30N 47°32' E 007°40'0 0.0
2018-Apr-12 06:00N 47°32' E 007°40'0 0.0
2018-Apr-12 05:30N 47°32' E 007°40'0 0.0
2018-Apr-12 05:00N 47°32' E 007°40'0 0.0
2018-Apr-12 04:30N 47°32' E 007°40'0 0.0
2018-Apr-12 04:00N 47°32' E 007°40'1 1.4
2018-Apr-12 03:30N 47°33' E 007°39'0 0.0
2018-Apr-12 03:00N 47°33' E 007°39'0 0.0
2018-Apr-12 02:30N 47°33' E 007°39'0 0.0
2018-Apr-12 02:00N 47°33' E 007°39'0 0.0
2018-Apr-12 01:30N 47°33' E 007°39'0 0.0
2018-Apr-12 00:59N 47°33' E 007°39'0 0.0
2018-Apr-12 00:29N 47°33' E 007°39'0 0.0
2018-Apr-12 00:00N 47°33' E 007°39'0 0.0
2018-Apr-11 23:30N 47°33' E 007°39'0 0.0
2018-Apr-11 23:00N 47°33' E 007°39'0 0.0
2018-Apr-11 22:30N 47°33' E 007°39'0 0.0
2018-Apr-11 21:59N 47°33' E 007°39'0 0.0
2018-Apr-11 21:30N 47°33' E 007°39'0 0.0
2018-Apr-11 21:00N 47°33' E 007°39'0 0.0
2018-Apr-11 20:30N 47°33' E 007°39'0 0.0
2018-Apr-11 20:00N 47°33' E 007°39'0 0.0
2018-Apr-11 19:29N 47°33' E 007°39'0 0.0
2018-Apr-11 19:00N 47°33' E 007°39'0 0.0
2018-Apr-11 18:30N 47°33' E 007°39'0 0.0
2018-Apr-11 18:00N 47°33' E 007°39'0 0.0
2018-Apr-11 17:30N 47°33' E 007°39'0 0.0
2018-Apr-11 17:00N 47°33' E 007°39'0 0.0
2018-Apr-11 16:30N 47°33' E 007°39'0 0.0
2018-Apr-11 16:00N 47°33' E 007°39'0 0.0
2018-Apr-11 15:30N 47°33' E 007°39'0 0.0
2018-Apr-11 15:00N 47°33' E 007°39'0 0.0
2018-Apr-11 14:30N 47°33' E 007°39'0 0.0
2018-Apr-11 14:00N 47°33' E 007°39'0 0.0
2018-Apr-11 13:30N 47°33' E 007°39'0 0.0
2018-Apr-11 13:00N 47°33' E 007°39'0 0.0
2018-Apr-11 12:28N 47°33' E 007°39'0 0.0
2018-Apr-11 12:00N 47°33' E 007°39'0 0.0
2018-Apr-11 11:29N 47°33' E 007°39'0 0.0
2018-Apr-11 11:00N 47°33' E 007°39'0 0.0
2018-Apr-11 10:30N 47°33' E 007°39'0 0.0
2018-Apr-11 09:59N 47°33' E 007°39'0 0.0
2018-Apr-11 09:30N 47°33' E 007°39'0 0.0
2018-Apr-11 09:00N 47°33' E 007°39'0 0.0
2018-Apr-11 08:30N 47°33' E 007°39'0 0.0
2018-Apr-11 08:00N 47°33' E 007°39'0 0.0
2018-Apr-11 07:30N 47°33' E 007°39'1 1.4
2018-Apr-11 07:00N 47°32' E 007°40'2 3.3
2018-Apr-11 06:30N 47°34' E 007°38'1 2.2
2018-Apr-11 06:00N 47°33' E 007°36'1 2.7
2018-Apr-11 05:30N 47°35' E 007°35'1 1.6
2018-Apr-11 04:59N 47°35' E 007°36'0 0.0
2018-Apr-11 04:30N 47°35' E 007°36'0 0.0
2018-Apr-11 04:00N 47°35' E 007°36'  

Dump ship's entire track history